createdAt,value
2022-09-23T00:01:36.236Z,60.23
2022-09-23T00:04:05.109Z,60.04
2022-09-23T00:06:34.005Z,60.04
2022-09-23T00:09:02.880Z,60.19
2022-09-23T00:11:31.786Z,60.12
2022-09-23T00:14:01.295Z,60.10
2022-09-23T00:16:34.533Z,60.23
2022-09-23T00:19:05.075Z,60.25
2022-09-23T00:21:33.925Z,60.25
2022-09-23T00:24:02.818Z,60.33
2022-09-23T00:26:31.701Z,60.59
2022-09-23T00:29:00.493Z,60.83
2022-09-23T00:31:29.415Z,61.28
2022-09-23T00:34:01.891Z,61.25
2022-09-23T00:36:32.800Z,61.05
2022-09-23T00:39:03.330Z,61.33
2022-09-23T00:41:35.507Z,61.17
2022-09-23T00:44:42.453Z,60.99
2022-09-23T00:47:25.002Z,61.17
2022-09-23T00:50:06.435Z,61.30
2022-09-23T00:52:36.563Z,61.12
2022-09-23T00:55:17.095Z,61.52
2022-09-23T00:57:48.073Z,61.19
2022-09-23T01:00:17.075Z,61.17
2022-09-23T01:02:47.055Z,61.25
2022-09-23T01:05:17.548Z,61.31
2022-09-23T01:07:47.243Z,61.39
2022-09-23T01:10:18.913Z,61.27
2022-09-23T01:13:07.741Z,61.38
2022-09-23T01:15:46.574Z,61.44
2022-09-23T01:18:15.322Z,61.35
2022-09-23T01:20:59.629Z,61.32
2022-09-23T01:23:37.399Z,61.52
2022-09-23T01:26:31.108Z,61.50
2022-09-23T01:29:24.684Z,61.86
2022-09-23T01:32:03.497Z,61.72
2022-09-23T01:34:42.457Z,62.28
2022-09-23T01:37:25.476Z,62.02
2022-09-23T01:40:11.501Z,61.98
2022-09-23T01:42:53.234Z,61.99
2022-09-23T01:45:36.003Z,62.03
2022-09-23T01:48:18.895Z,62.09
2022-09-23T01:51:17.258Z,62.17
2022-09-23T01:53:52.765Z,62.33
2022-09-23T01:56:44.246Z,62.27
2022-09-23T01:59:35.836Z,62.88
2022-09-23T02:02:10.359Z,63.30
2022-09-23T02:05:12.857Z,62.96
2022-09-23T02:07:58.607Z,62.86
2022-09-23T02:10:41.456Z,62.94
2022-09-23T02:13:18.489Z,62.94
2022-09-23T02:15:53.566Z,62.99
2022-09-23T02:18:30.645Z,63.11
2022-09-23T02:21:04.107Z,63.11
2022-09-23T02:23:42.819Z,63.01
2022-09-23T02:26:56.757Z,62.86
2022-09-23T02:29:34.446Z,62.75
2022-09-23T02:32:20.258Z,62.69
2022-09-23T02:34:59.697Z,62.66
2022-09-23T02:37:43.876Z,62.52
2022-09-23T02:40:25.534Z,62.51
2022-09-23T02:43:20.259Z,62.34
2022-09-23T02:45:50.224Z,62.33
2022-09-23T02:48:33.122Z,62.42
2022-09-23T02:51:04.048Z,62.32
2022-09-23T02:53:36.980Z,62.38
2022-09-23T02:56:35.248Z,62.37
2022-09-23T02:59:04.790Z,62.88
2022-09-23T03:01:39.622Z,62.66
2022-09-23T03:04:58.833Z,62.64
2022-09-23T03:07:54.369Z,63.22
2022-09-23T03:10:31.383Z,63.45
2022-09-23T03:13:20.168Z,63.09
2022-09-23T03:16:11.732Z,63.00
2022-09-23T03:18:52.803Z,63.74
2022-09-23T03:21:28.976Z,63.94
2022-09-23T03:24:01.830Z,64.46
2022-09-23T03:26:37.827Z,64.18
2022-09-23T03:29:11.628Z,63.65
2022-09-23T03:31:42.770Z,64.31
2022-09-23T03:34:21.200Z,63.81
2022-09-23T03:37:06.466Z,63.66
2022-09-23T03:40:03.842Z,63.53
2022-09-23T03:42:35.293Z,63.82
2022-09-23T03:45:09.801Z,63.76
2022-09-23T03:47:39.868Z,63.75
2022-09-23T03:50:09.295Z,63.86
2022-09-23T03:52:40.153Z,63.66
2022-09-23T03:55:09.997Z,63.67
2022-09-23T03:57:39.038Z,63.91
2022-09-23T04:00:10.010Z,64.09
2022-09-23T04:02:42.196Z,64.08
2022-09-23T04:05:13.146Z,63.86
2022-09-23T04:07:42.916Z,63.88
2022-09-23T04:10:12.065Z,63.78
2022-09-23T04:12:40.982Z,63.87
2022-09-23T04:15:10.488Z,64.03
2022-09-23T04:17:39.215Z,64.31
2022-09-23T04:20:08.348Z,64.62
2022-09-23T04:22:39.006Z,64.65
2022-09-23T04:25:08.794Z,64.55
2022-09-23T04:27:38.039Z,64.48
2022-09-23T04:30:07.955Z,64.46
2022-09-23T04:32:38.274Z,64.32
2022-09-23T04:35:08.313Z,64.62
2022-09-23T04:37:37.436Z,64.46
2022-09-23T04:40:07.074Z,64.39
2022-09-23T04:42:35.978Z,64.28
2022-09-23T04:45:06.116Z,64.42
2022-09-23T04:47:35.003Z,64.34
2022-09-23T04:50:04.055Z,64.35
2022-09-23T04:52:32.952Z,64.34
2022-09-23T04:55:01.905Z,64.53
2022-09-23T04:57:30.706Z,64.33
2022-09-23T05:00:00.151Z,64.30
2022-09-23T05:02:29.183Z,64.41
2022-09-23T05:04:58.791Z,64.02
2022-09-23T05:07:27.604Z,63.93
2022-09-23T05:09:56.634Z,63.81
2022-09-23T05:12:25.393Z,63.86
2022-09-23T05:14:54.266Z,63.89
2022-09-23T05:17:23.175Z,64.11
2022-09-23T05:19:52.086Z,64.06
2022-09-23T05:22:21.013Z,63.96
2022-09-23T05:24:49.823Z,64.00
2022-09-23T05:27:18.800Z,63.94
2022-09-23T05:29:48.299Z,63.93
2022-09-23T05:32:17.809Z,63.58
2022-09-23T05:34:46.606Z,63.65
2022-09-23T05:37:15.542Z,63.57
2022-09-23T05:39:44.483Z,63.59
2022-09-23T05:42:13.533Z,63.38
2022-09-23T05:44:42.495Z,63.28
2022-09-23T05:47:11.332Z,63.17
2022-09-23T05:49:58.509Z,63.35
2022-09-23T05:52:28.799Z,63.08
2022-09-23T05:54:57.612Z,63.11
2022-09-23T05:57:26.915Z,62.98
2022-09-23T05:59:55.633Z,62.87
2022-09-23T06:02:24.572Z,62.71
2022-09-23T06:04:53.658Z,62.59
2022-09-23T06:07:22.532Z,62.45
2022-09-23T06:09:54.455Z,62.57
2022-09-23T06:12:23.668Z,62.14
2022-09-23T06:14:53.298Z,61.39
2022-09-23T06:17:22.147Z,61.25
2022-09-23T06:19:51.017Z,61.49
2022-09-23T06:22:19.776Z,61.46
2022-09-23T06:24:48.602Z,61.54
2022-09-23T06:27:17.431Z,61.57
2022-09-23T06:29:46.241Z,61.23
2022-09-23T06:32:14.997Z,61.37
2022-09-23T06:34:51.624Z,61.33
2022-09-23T06:37:21.102Z,61.36
2022-09-23T06:39:51.313Z,61.08
2022-09-23T06:42:20.286Z,61.11
2022-09-23T06:44:49.172Z,60.79
2022-09-23T06:47:18.222Z,60.34
2022-09-23T06:49:47.037Z,59.89
2022-09-23T06:52:15.895Z,60.11
2022-09-23T06:54:44.692Z,59.70
2022-09-23T06:57:13.809Z,58.36
2022-09-23T06:59:42.770Z,58.76
2022-09-23T07:02:12.596Z,58.81
2022-09-23T07:04:41.672Z,57.93
2022-09-23T07:07:11.899Z,58.04
2022-09-23T07:09:41.023Z,57.07
2022-09-23T07:12:09.975Z,55.38
2022-09-23T07:14:38.858Z,56.23
2022-09-23T07:17:07.680Z,56.55
2022-09-23T07:19:36.536Z,55.88
2022-09-23T07:22:05.842Z,55.42
2022-09-23T07:24:34.808Z,55.35
2022-09-23T07:27:03.709Z,55.72
2022-09-23T07:29:44.607Z,56.17
2022-09-23T07:32:17.287Z,55.84
2022-09-23T07:34:47.583Z,54.74
2022-09-23T07:37:18.232Z,54.68
2022-09-23T07:39:47.159Z,54.53
2022-09-23T07:42:16.103Z,54.01
2022-09-23T07:44:48.246Z,54.40
2022-09-23T07:47:17.680Z,54.26
2022-09-23T07:49:46.541Z,54.29
2022-09-23T07:52:15.472Z,53.83
2022-09-23T07:54:48.052Z,52.62
2022-09-23T07:57:16.880Z,52.08
2022-09-23T07:59:45.841Z,52.41
2022-09-23T08:02:16.788Z,53.02
2022-09-23T08:04:46.660Z,53.27
2022-09-23T08:07:16.774Z,53.18
2022-09-23T08:09:46.072Z,53.00
2022-09-23T08:12:17.710Z,52.76
2022-09-23T08:14:46.686Z,52.61
2022-09-23T08:17:15.614Z,52.61
2022-09-23T08:19:44.731Z,52.95
2022-09-23T08:22:13.612Z,51.41
2022-09-23T08:24:42.419Z,51.36
2022-09-23T08:27:12.976Z,51.63
2022-09-23T08:29:41.868Z,51.07
2022-09-23T08:32:10.751Z,51.50
2022-09-23T08:34:40.371Z,51.58
2022-09-23T08:37:12.277Z,50.86
2022-09-23T08:39:41.131Z,49.64
2022-09-23T08:42:27.990Z,49.99
2022-09-23T08:45:03.058Z,49.36
2022-09-23T08:47:40.899Z,50.39
2022-09-23T08:50:34.347Z,50.38
2022-09-23T08:53:14.852Z,50.50
2022-09-23T08:55:53.825Z,50.56
2022-09-23T08:58:26.384Z,50.58
2022-09-23T09:01:33.247Z,48.28
2022-09-23T09:04:12.808Z,47.59
2022-09-23T09:06:53.633Z,47.97
2022-09-23T09:09:36.550Z,47.76
2022-09-23T09:12:45.603Z,47.18
2022-09-23T09:15:19.970Z,46.77
2022-09-23T09:18:10.416Z,44.43
2022-09-23T09:21:01.316Z,43.41
2022-09-23T09:23:48.753Z,44.33
2022-09-23T09:26:25.865Z,45.29
2022-09-23T09:29:35.396Z,44.86
2022-09-23T09:32:46.723Z,43.73
2022-09-23T09:35:27.769Z,43.68
2022-09-23T09:37:57.017Z,43.82
2022-09-23T09:40:25.976Z,44.56
2022-09-23T09:42:55.228Z,44.50
2022-09-23T09:45:29.257Z,42.97
2022-09-23T09:48:15.411Z,42.94
2022-09-23T09:50:52.676Z,43.24
2022-09-23T09:53:32.924Z,42.49
2022-09-23T09:56:10.362Z,42.19
2022-09-23T09:58:47.562Z,40.48
2022-09-23T10:01:29.227Z,41.61
2022-09-23T10:04:01.582Z,42.62
2022-09-23T10:06:36.213Z,42.87
2022-09-23T10:09:14.247Z,41.32
2022-09-23T10:11:44.791Z,40.28
2022-09-23T10:14:19.624Z,41.50
2022-09-23T10:17:06.312Z,42.23
2022-09-23T10:19:38.827Z,42.30
2022-09-23T10:22:24.695Z,42.08
2022-09-23T10:24:55.566Z,41.85
2022-09-23T10:27:31.937Z,41.13
2022-09-23T10:30:22.190Z,39.88
2022-09-23T10:32:55.303Z,38.08
2022-09-23T10:35:28.587Z,38.40
2022-09-23T10:38:00.135Z,40.48
2022-09-23T10:40:58.828Z,40.64
2022-09-23T10:43:57.934Z,41.52
2022-09-23T10:46:45.196Z,41.67
2022-09-23T10:49:39.156Z,41.64
2022-09-23T10:52:26.268Z,41.74
2022-09-23T10:55:12.202Z,39.58
2022-09-23T10:57:46.980Z,39.02
2022-09-23T11:00:25.346Z,39.46
2022-09-23T11:03:03.276Z,39.29
2022-09-23T11:05:36.294Z,39.15
2022-09-23T11:08:23.221Z,39.19
2022-09-23T11:11:12.050Z,39.71
2022-09-23T11:13:59.125Z,39.68
2022-09-23T11:16:54.505Z,39.12
2022-09-23T11:19:51.095Z,39.94
2022-09-23T11:22:38.388Z,40.40
2022-09-23T11:25:44.246Z,41.03
2022-09-23T11:28:45.808Z,40.63
2022-09-23T11:31:59.661Z,41.34
2022-09-23T11:35:16.944Z,41.43
2022-09-23T11:37:50.870Z,40.49
2022-09-23T11:40:23.261Z,40.80
2022-09-23T11:43:10.270Z,40.80
2022-09-23T11:45:50.268Z,40.72
2022-09-23T11:48:35.004Z,39.78
2022-09-23T11:51:13.883Z,40.20
2022-09-23T11:53:50.519Z,40.08
2022-09-23T11:56:34.984Z,40.17
2022-09-23T11:59:16.407Z,38.94
2022-09-23T12:02:14.738Z,38.52
2022-09-23T12:05:04.932Z,39.06
2022-09-23T12:07:57.066Z,38.25
2022-09-23T12:10:57.718Z,38.21
2022-09-23T12:14:01.696Z,38.53
2022-09-23T12:17:02.010Z,37.58
2022-09-23T12:19:52.626Z,37.91
2022-09-23T12:22:54.789Z,37.58
2022-09-23T12:25:35.367Z,37.65
2022-09-23T12:28:26.464Z,38.55
2022-09-23T12:30:59.350Z,38.99
2022-09-23T12:33:34.515Z,39.04
2022-09-23T12:36:13.275Z,38.91
2022-09-23T12:38:56.491Z,38.64
2022-09-23T12:41:39.225Z,38.58
2022-09-23T12:44:47.439Z,38.19
2022-09-23T12:47:25.468Z,38.55
2022-09-23T12:49:56.930Z,39.23
2022-09-23T12:52:32.646Z,39.70
2022-09-23T12:55:26.911Z,39.48
2022-09-23T12:57:55.804Z,39.83
2022-09-23T13:00:28.875Z,39.82
2022-09-23T13:03:19.647Z,39.45
2022-09-23T13:06:20.338Z,39.11
2022-09-23T13:08:50.514Z,39.27
2022-09-23T13:11:26.428Z,39.77
2022-09-23T13:14:02.542Z,39.77
2022-09-23T13:16:46.274Z,40.44
2022-09-23T13:19:34.179Z,40.80
2022-09-23T13:22:09.755Z,40.36
2022-09-23T13:24:41.669Z,40.63
2022-09-23T13:27:19.490Z,40.36
2022-09-23T13:30:02.639Z,39.87
2022-09-23T13:32:45.734Z,40.30
2022-09-23T13:35:29.471Z,40.58
2022-09-23T13:37:58.923Z,40.57
2022-09-23T13:40:30.152Z,40.24
2022-09-23T13:43:03.676Z,40.24
2022-09-23T13:45:38.128Z,39.90
2022-09-23T13:48:12.206Z,39.91
2022-09-23T13:50:48.015Z,40.50
2022-09-23T13:53:32.264Z,41.09
2022-09-23T13:56:28.833Z,41.05
2022-09-23T13:59:28.974Z,41.26
2022-09-23T14:02:12.876Z,41.14
2022-09-23T14:04:41.916Z,40.21
2022-09-23T14:07:14.711Z,40.30
2022-09-23T14:09:52.848Z,40.59
2022-09-23T14:12:24.927Z,40.71
2022-09-23T14:14:53.995Z,40.11
2022-09-23T14:17:23.944Z,40.59
2022-09-23T14:19:53.042Z,40.86
2022-09-23T14:22:28.044Z,40.34
2022-09-23T14:24:58.043Z,39.99
2022-09-23T14:27:36.880Z,40.76
2022-09-23T14:30:06.400Z,40.53
2022-09-23T14:32:35.482Z,39.87
2022-09-23T14:35:04.763Z,39.40
2022-09-23T14:37:57.922Z,39.31
2022-09-23T14:40:28.652Z,39.35
2022-09-23T14:43:00.431Z,38.88
2022-09-23T14:45:35.422Z,39.83
2022-09-23T14:48:23.089Z,40.36
2022-09-23T14:50:56.457Z,40.09
2022-09-23T14:53:46.746Z,39.96
2022-09-23T14:56:25.189Z,39.96
2022-09-23T14:59:00.281Z,40.26
2022-09-23T15:01:35.014Z,39.85
2022-09-23T15:04:15.658Z,40.43
2022-09-23T15:07:07.606Z,40.71
2022-09-23T15:09:40.132Z,40.91
2022-09-23T15:12:12.971Z,41.14
2022-09-23T15:14:50.802Z,40.57
2022-09-23T15:17:31.147Z,41.10
2022-09-23T15:20:07.133Z,41.32
2022-09-23T15:22:48.829Z,41.46
2022-09-23T15:25:36.447Z,41.47
2022-09-23T15:28:11.494Z,41.57
2022-09-23T15:30:40.629Z,41.77
2022-09-23T15:33:16.619Z,41.88
2022-09-23T15:35:49.220Z,42.04
2022-09-23T15:38:18.363Z,42.27
2022-09-23T15:40:49.222Z,42.25
2022-09-23T15:43:25.073Z,42.44
2022-09-23T15:46:22.690Z,42.51
2022-09-23T15:48:59.073Z,42.55
2022-09-23T15:51:28.887Z,42.70
2022-09-23T15:53:58.209Z,42.84
2022-09-23T15:56:27.625Z,42.89
2022-09-23T15:58:56.812Z,42.88
2022-09-23T16:01:34.031Z,43.13
2022-09-23T16:04:04.840Z,43.33
2022-09-23T16:06:36.585Z,43.41
2022-09-23T16:09:05.828Z,43.20
2022-09-23T16:11:35.742Z,43.17
2022-09-23T16:14:04.706Z,43.18
2022-09-23T16:16:34.115Z,43.32
2022-09-23T16:19:02.883Z,43.44
2022-09-23T16:21:31.790Z,43.69
2022-09-23T16:24:00.997Z,43.78
2022-09-23T16:26:33.263Z,43.75
2022-09-23T16:29:03.070Z,43.96
2022-09-23T16:31:32.623Z,44.03
2022-09-23T16:34:02.724Z,44.54
2022-09-23T16:36:38.755Z,44.63
2022-09-23T16:39:11.289Z,44.63
2022-09-23T16:41:43.896Z,44.65
2022-09-23T16:44:12.917Z,44.62
2022-09-23T16:46:43.367Z,44.68
2022-09-23T16:49:12.622Z,44.63
2022-09-23T16:51:41.925Z,44.89
2022-09-23T16:54:13.403Z,44.97
2022-09-23T16:56:47.094Z,44.97
2022-09-23T16:59:17.498Z,45.04
2022-09-23T17:02:05.245Z,45.20
2022-09-23T17:04:34.306Z,45.85
2022-09-23T17:07:03.857Z,45.93
2022-09-23T17:09:33.056Z,45.67
2022-09-23T17:12:18.235Z,45.83
2022-09-23T17:14:47.632Z,46.01
2022-09-23T17:17:16.734Z,46.09
2022-09-23T17:19:45.831Z,45.99
2022-09-23T17:22:15.700Z,46.00
2022-09-23T17:24:45.861Z,46.07
2022-09-23T17:27:17.723Z,46.00
2022-09-23T17:29:46.686Z,46.55
2022-09-23T17:32:15.598Z,46.41
2022-09-23T17:34:45.374Z,46.47
2022-09-23T17:37:15.003Z,46.42
2022-09-23T17:39:44.833Z,46.45
2022-09-23T17:42:15.852Z,47.01
2022-09-23T17:44:44.936Z,46.77
2022-09-23T17:47:14.924Z,46.81
2022-09-23T17:49:45.722Z,46.85
2022-09-23T17:52:15.058Z,46.89
2022-09-23T17:54:45.685Z,47.12
2022-09-23T17:57:15.303Z,47.32
2022-09-23T17:59:44.950Z,47.50
2022-09-23T18:02:15.843Z,47.66
2022-09-23T18:04:45.216Z,48.45
2022-09-23T18:07:14.155Z,48.26
2022-09-23T18:09:43.661Z,48.83
2022-09-23T18:12:12.966Z,49.42
2022-09-23T18:14:42.735Z,49.03
2022-09-23T18:17:11.934Z,49.53
2022-09-23T18:19:41.169Z,49.65
2022-09-23T18:22:10.691Z,50.57
2022-09-23T18:24:41.786Z,50.74
2022-09-23T18:27:10.973Z,50.78
2022-09-23T18:29:40.068Z,50.81
2022-09-23T18:32:13.883Z,50.10
2022-09-23T18:34:44.944Z,49.83
2022-09-23T18:37:16.153Z,49.80
2022-09-23T18:39:46.085Z,50.19
2022-09-23T18:42:15.481Z,50.42
2022-09-23T18:44:44.681Z,50.40
2022-09-23T18:47:33.848Z,50.27
2022-09-23T18:50:21.897Z,50.76
2022-09-23T18:52:51.190Z,50.27
2022-09-23T18:55:20.184Z,50.14
2022-09-23T18:57:49.415Z,50.25
2022-09-23T19:00:19.812Z,50.57
2022-09-23T19:02:49.213Z,50.50
2022-09-23T19:05:19.465Z,50.65
2022-09-23T19:07:48.529Z,50.98
2022-09-23T19:10:19.577Z,51.29
2022-09-23T19:12:49.693Z,50.99
2022-09-23T19:15:18.853Z,50.94
2022-09-23T19:17:48.200Z,51.49
2022-09-23T19:20:17.808Z,51.46
2022-09-23T19:22:48.139Z,51.53
2022-09-23T19:25:17.881Z,51.06
2022-09-23T19:27:47.245Z,50.87
2022-09-23T19:30:16.656Z,50.91
2022-09-23T19:32:46.259Z,51.31
2022-09-23T19:35:16.436Z,51.51
2022-09-23T19:37:49.740Z,51.64
2022-09-23T19:40:19.129Z,51.67
2022-09-23T19:42:48.475Z,51.77
2022-09-23T19:45:17.772Z,52.13
2022-09-23T19:47:46.771Z,52.09
2022-09-23T19:50:16.337Z,52.31
2022-09-23T19:52:45.573Z,52.44
2022-09-23T19:55:14.881Z,52.30
2022-09-23T19:57:44.087Z,52.33
2022-09-23T20:00:15.728Z,52.63
2022-09-23T20:02:45.095Z,52.48
2022-09-23T20:05:18.415Z,52.34
2022-09-23T20:07:49.366Z,52.25
2022-09-23T20:10:18.910Z,52.35
2022-09-23T20:12:48.066Z,52.62
2022-09-23T20:15:17.781Z,52.63
2022-09-23T20:17:47.019Z,53.10
2022-09-23T20:20:16.495Z,53.14
2022-09-23T20:22:46.331Z,53.34
2022-09-23T20:25:15.802Z,53.12
2022-09-23T20:27:51.760Z,53.36
2022-09-23T20:30:21.575Z,53.48
2022-09-23T20:32:50.683Z,53.11
2022-09-23T20:35:20.077Z,53.43
2022-09-23T20:37:49.619Z,53.75
2022-09-23T20:40:18.760Z,53.79
2022-09-23T20:42:49.349Z,53.61
2022-09-23T20:45:18.812Z,54.17
2022-09-23T20:47:48.148Z,53.90
2022-09-23T20:50:17.664Z,54.39
2022-09-23T20:52:46.921Z,55.21
2022-09-23T20:55:15.915Z,55.16
2022-09-23T20:57:45.643Z,55.27
2022-09-23T21:00:15.436Z,54.88
2022-09-23T21:02:45.459Z,54.41
2022-09-23T21:05:15.831Z,55.14
2022-09-23T21:07:47.336Z,55.34
2022-09-23T21:10:16.757Z,55.47
2022-09-23T21:12:50.725Z,55.86
2022-09-23T21:15:20.292Z,55.63
2022-09-23T21:17:49.463Z,55.02
2022-09-23T21:20:18.651Z,55.87
2022-09-23T21:22:50.715Z,55.03
2022-09-23T21:25:28.639Z,54.89
2022-09-23T21:28:02.428Z,54.84
2022-09-23T21:30:31.668Z,54.88
2022-09-23T21:33:01.642Z,55.02
2022-09-23T21:35:31.765Z,55.15
2022-09-23T21:38:01.087Z,54.86
2022-09-23T21:40:49.512Z,54.67
2022-09-23T21:43:19.605Z,55.01
2022-09-23T21:45:48.531Z,55.90
2022-09-23T21:48:17.428Z,55.62
2022-09-23T21:50:55.391Z,55.71
2022-09-23T21:53:24.827Z,55.32
2022-09-23T21:55:54.329Z,54.91
2022-09-23T21:58:23.528Z,54.88
2022-09-23T22:00:52.583Z,54.94
2022-09-23T22:03:22.036Z,54.95
2022-09-23T22:06:22.153Z,55.01
2022-09-23T22:08:54.558Z,55.00
2022-09-23T22:11:43.730Z,55.09
2022-09-23T22:14:14.363Z,55.16
2022-09-23T22:16:43.967Z,55.10
2022-09-23T22:19:15.956Z,55.23
2022-09-23T22:21:46.178Z,55.34
2022-09-23T22:24:15.724Z,55.35
2022-09-23T22:26:45.777Z,55.43
2022-09-23T22:29:34.913Z,55.64
2022-09-23T22:32:24.435Z,55.56
2022-09-23T22:34:53.747Z,55.38
2022-09-23T22:37:34.680Z,55.86
2022-09-23T22:40:09.772Z,55.98
2022-09-23T22:42:39.842Z,55.88
2022-09-23T22:45:11.828Z,56.43
2022-09-23T22:47:45.841Z,56.87
2022-09-23T22:50:15.556Z,56.76
2022-09-23T22:52:45.930Z,56.29
2022-09-23T22:55:14.921Z,56.30
2022-09-23T22:57:44.222Z,56.35
2022-09-23T23:00:14.086Z,56.57
2022-09-23T23:02:43.436Z,56.78
2022-09-23T23:05:15.097Z,56.60
2022-09-23T23:07:44.307Z,56.90
2022-09-23T23:10:14.646Z,56.68
2022-09-23T23:12:44.454Z,56.66
2022-09-23T23:15:13.637Z,56.77
2022-09-23T23:17:44.004Z,57.04
2022-09-23T23:20:13.874Z,56.98
2022-09-23T23:22:43.088Z,57.04
2022-09-23T23:25:12.479Z,57.16
2022-09-23T23:27:41.674Z,57.11
2022-09-23T23:30:11.893Z,57.21
2022-09-23T23:32:41.090Z,57.18
2022-09-23T23:35:11.126Z,57.26
2022-09-23T23:37:41.357Z,57.48
2022-09-23T23:40:11.211Z,57.52
2022-09-23T23:42:40.445Z,57.59
2022-09-23T23:45:09.953Z,57.49
2022-09-23T23:47:39.257Z,57.56
2022-09-23T23:50:10.293Z,57.76
2022-09-23T23:52:39.929Z,57.77
2022-09-23T23:55:10.023Z,57.80
2022-09-23T23:57:39.156Z,57.64
